Terminal Aerodrome Forecast
Issued by NWS Twin Cities, MN

Home | Current Version | Previous Version | Graphics & Text | Print | Product List | Glossary On
Versions: 1 2 3 4 5 6 7 8 9 10 11 12 13 14 15 16 17 18 19 20 21 22 23 24
000
FTUS43 KMPX 160520
TAFMSP
TAF
KMSP 160520Z 1606/1712 11009KT P6SM VCSH BKN150
     FM161000 14007KT P6SM BKN060 OVC090
     FM161200 15006KT P6SM OVC060
     FM162100 26006KT P6SM BKN060
     FM170300 31004KT P6SM SCT060=

USA.gov is the U.S. government's official web portal to all federal, state and local government web resources and services.